sensor_id;sensor_type;location;lat;lon;timestamp;P1;durP1;ratioP1;P2;durP2;ratioP2
80957;SDS011;70419;42.700;23.316;2023-08-30T00:00:14;13.38;;;6.35;;
80957;SDS011;70419;42.700;23.316;2023-08-30T00:02:42;11.20;;;6.88;;
80957;SDS011;70419;42.700;23.316;2023-08-30T00:05:09;14.18;;;7.68;;
80957;SDS011;70419;42.700;23.316;2023-08-30T00:07:35;10.85;;;6.55;;
80957;SDS011;70419;42.700;23.316;2023-08-30T00:10:01;13.93;;;6.63;;
80957;SDS011;70419;42.700;23.316;2023-08-30T00:12:27;13.05;;;6.70;;
80957;SDS011;70419;42.700;23.316;2023-08-30T00:14:52;13.60;;;6.78;;
80957;SDS011;70419;42.700;23.316;2023-08-30T00:17:19;10.90;;;6.45;;
80957;SDS011;70419;42.700;23.316;2023-08-30T00:19:45;13.00;;;6.70;;
80957;SDS011;70419;42.700;23.316;2023-08-30T00:22:11;13.38;;;7.32;;
80957;SDS011;70419;42.700;23.316;2023-08-30T00:24:37;12.88;;;6.70;;
80957;SDS011;70419;42.700;23.316;2023-08-30T00:27:03;12.80;;;7.20;;
80957;SDS011;70419;42.700;23.316;2023-08-30T00:29:29;11.90;;;6.70;;
80957;SDS011;70419;42.700;23.316;2023-08-30T00:31:55;11.32;;;6.82;;
80957;SDS011;70419;42.700;23.316;2023-08-30T00:34:21;10.48;;;6.38;;
80957;SDS011;70419;42.700;23.316;2023-08-30T00:36:47;9.38;;;5.95;;
80957;SDS011;70419;42.700;23.316;2023-08-30T00:39:13;9.93;;;5.45;;
80957;SDS011;70419;42.700;23.316;2023-08-30T00:41:39;11.38;;;5.72;;
80957;SDS011;70419;42.700;23.316;2023-08-30T00:44:05;11.60;;;5.85;;
80957;SDS011;70419;42.700;23.316;2023-08-30T00:46:31;10.52;;;5.82;;
80957;SDS011;70419;42.700;23.316;2023-08-30T00:48:59;11.95;;;5.45;;
80957;SDS011;70419;42.700;23.316;2023-08-30T00:51:25;11.27;;;5.68;;
80957;SDS011;70419;42.700;23.316;2023-08-30T00:53:52;9.15;;;6.25;;
80957;SDS011;70419;42.700;23.316;2023-08-30T00:56:20;12.00;;;5.75;;
80957;SDS011;70419;42.700;23.316;2023-08-30T00:58:47;10.50;;;5.90;;
80957;SDS011;70419;42.700;23.316;2023-08-30T01:01:14;9.98;;;5.40;;
80957;SDS011;70419;42.700;23.316;2023-08-30T01:03:41;13.52;;;5.78;;
80957;SDS011;70419;42.700;23.316;2023-08-30T01:06:07;11.43;;;6.85;;
80957;SDS011;70419;42.700;23.316;2023-08-30T01:08:33;13.65;;;6.32;;
80957;SDS011;70419;42.700;23.316;2023-08-30T01:13:48;12.57;;;5.50;;
80957;SDS011;70419;42.700;23.316;2023-08-30T01:16:21;9.68;;;5.45;;
80957;SDS011;70419;42.700;23.316;2023-08-30T01:18:49;12.15;;;5.22;;
80957;SDS011;70419;42.700;23.316;2023-08-30T01:24:32;8.70;;;5.07;;
80957;SDS011;70419;42.700;23.316;2023-08-30T01:27:13;10.80;;;5.32;;
80957;SDS011;70419;42.700;23.316;2023-08-30T01:29:42;9.40;;;5.20;;
80957;SDS011;70419;42.700;23.316;2023-08-30T01:32:09;10.63;;;5.65;;
80957;SDS011;70419;42.700;23.316;2023-08-30T01:34:36;9.93;;;5.45;;
80957;SDS011;70419;42.700;23.316;2023-08-30T01:37:07;9.90;;;5.30;;
80957;SDS011;70419;42.700;23.316;2023-08-30T01:39:34;14.85;;;5.70;;
80957;SDS011;70419;42.700;23.316;2023-08-30T01:42:01;10.20;;;5.32;;
80957;SDS011;70419;42.700;23.316;2023-08-30T01:44:29;10.95;;;5.68;;
80957;SDS011;70419;42.700;23.316;2023-08-30T01:46:56;8.57;;;5.30;;
80957;SDS011;70419;42.700;23.316;2023-08-30T01:49:23;12.88;;;5.47;;
80957;SDS011;70419;42.700;23.316;2023-08-30T01:51:50;9.45;;;5.03;;
80957;SDS011;70419;42.700;23.316;2023-08-30T01:54:17;9.05;;;5.35;;
80957;SDS011;70419;42.700;23.316;2023-08-30T01:56:46;11.15;;;5.10;;
80957;SDS011;70419;42.700;23.316;2023-08-30T01:59:12;10.68;;;5.65;;
80957;SDS011;70419;42.700;23.316;2023-08-30T02:01:38;10.55;;;5.53;;
80957;SDS011;70419;42.700;23.316;2023-08-30T02:04:04;10.65;;;5.75;;
80957;SDS011;70419;42.700;23.316;2023-08-30T02:06:32;10.77;;;5.47;;
80957;SDS011;70419;42.700;23.316;2023-08-30T02:09:21;14.10;;;5.63;;
80957;SDS011;70419;42.700;23.316;2023-08-30T02:11:54;12.27;;;6.05;;
80957;SDS011;70419;42.700;23.316;2023-08-30T02:14:24;10.20;;;5.55;;
80957;SDS011;70419;42.700;23.316;2023-08-30T02:16:52;11.82;;;6.07;;
80957;SDS011;70419;42.700;23.316;2023-08-30T02:19:20;10.25;;;5.68;;
80957;SDS011;70419;42.700;23.316;2023-08-30T02:21:47;10.45;;;6.53;;
80957;SDS011;70419;42.700;23.316;2023-08-30T02:24:13;10.48;;;5.60;;
80957;SDS011;70419;42.700;23.316;2023-08-30T02:26:39;13.25;;;6.00;;
80957;SDS011;70419;42.700;23.316;2023-08-30T02:29:05;14.77;;;6.88;;
80957;SDS011;70419;42.700;23.316;2023-08-30T02:31:30;12.52;;;6.07;;
80957;SDS011;70419;42.700;23.316;2023-08-30T02:33:56;10.35;;;5.60;;
80957;SDS011;70419;42.700;23.316;2023-08-30T02:36:22;14.82;;;6.70;;
80957;SDS011;70419;42.700;23.316;2023-08-30T02:38:48;12.50;;;6.03;;
80957;SDS011;70419;42.700;23.316;2023-08-30T02:41:14;17.98;;;6.10;;
80957;SDS011;70419;42.700;23.316;2023-08-30T02:43:40;11.85;;;5.57;;
80957;SDS011;70419;42.700;23.316;2023-08-30T02:46:05;16.17;;;6.60;;
80957;SDS011;70419;42.700;23.316;2023-08-30T02:48:31;11.60;;;5.72;;
80957;SDS011;70419;42.700;23.316;2023-08-30T02:50:58;13.75;;;6.25;;
80957;SDS011;70419;42.700;23.316;2023-08-30T02:53:24;11.15;;;6.00;;
80957;SDS011;70419;42.700;23.316;2023-08-30T02:55:50;10.45;;;6.38;;
80957;SDS011;70419;42.700;23.316;2023-08-30T02:58:16;10.82;;;6.13;;
80957;SDS011;70419;42.700;23.316;2023-08-30T03:00:41;17.38;;;6.85;;
80957;SDS011;70419;42.700;23.316;2023-08-30T03:03:07;13.52;;;6.82;;
80957;SDS011;70419;42.700;23.316;2023-08-30T03:05:33;12.00;;;5.93;;
80957;SDS011;70419;42.700;23.316;2023-08-30T03:07:58;10.43;;;5.50;;
80957;SDS011;70419;42.700;23.316;2023-08-30T03:10:24;10.88;;;6.50;;
80957;SDS011;70419;42.700;23.316;2023-08-30T03:12:50;13.55;;;5.88;;
80957;SDS011;70419;42.700;23.316;2023-08-30T03:15:16;12.45;;;6.32;;
80957;SDS011;70419;42.700;23.316;2023-08-30T03:17:42;11.20;;;5.72;;
80957;SDS011;70419;42.700;23.316;2023-08-30T03:20:08;14.55;;;6.00;;
80957;SDS011;70419;42.700;23.316;2023-08-30T03:22:35;11.40;;;5.72;;
80957;SDS011;70419;42.700;23.316;2023-08-30T03:25:00;13.10;;;6.10;;
80957;SDS011;70419;42.700;23.316;2023-08-30T03:27:28;16.35;;;6.22;;
80957;SDS011;70419;42.700;23.316;2023-08-30T03:29:55;11.40;;;5.35;;
80957;SDS011;70419;42.700;23.316;2023-08-30T03:32:21;9.25;;;5.57;;
80957;SDS011;70419;42.700;23.316;2023-08-30T03:34:47;10.38;;;5.25;;
80957;SDS011;70419;42.700;23.316;2023-08-30T03:37:16;11.00;;;5.15;;
80957;SDS011;70419;42.700;23.316;2023-08-30T03:39:42;13.20;;;6.43;;
80957;SDS011;70419;42.700;23.316;2023-08-30T03:42:08;12.57;;;6.35;;
80957;SDS011;70419;42.700;23.316;2023-08-30T03:44:34;15.77;;;6.38;;
80957;SDS011;70419;42.700;23.316;2023-08-30T03:47:00;15.57;;;5.28;;
80957;SDS011;70419;42.700;23.316;2023-08-30T03:49:25;16.25;;;5.75;;
80957;SDS011;70419;42.700;23.316;2023-08-30T03:51:52;14.38;;;5.60;;
80957;SDS011;70419;42.700;23.316;2023-08-30T03:54:18;14.77;;;6.05;;
80957;SDS011;70419;42.700;23.316;2023-08-30T03:56:44;14.80;;;6.05;;
80957;SDS011;70419;42.700;23.316;2023-08-30T03:59:10;17.27;;;7.05;;
80957;SDS011;70419;42.700;23.316;2023-08-30T04:01:37;14.05;;;6.03;;
80957;SDS011;70419;42.700;23.316;2023-08-30T04:04:03;11.45;;;6.05;;
80957;SDS011;70419;42.700;23.316;2023-08-30T04:06:30;16.08;;;6.40;;
80957;SDS011;70419;42.700;23.316;2023-08-30T04:08:56;11.63;;;6.00;;
80957;SDS011;70419;42.700;23.316;2023-08-30T04:11:22;16.70;;;6.45;;
80957;SDS011;70419;42.700;23.316;2023-08-30T04:13:48;14.38;;;5.93;;
80957;SDS011;70419;42.700;23.316;2023-08-30T04:16:14;15.18;;;7.70;;
80957;SDS011;70419;42.700;23.316;2023-08-30T04:18:39;16.95;;;6.43;;
80957;SDS011;70419;42.700;23.316;2023-08-30T04:21:05;12.15;;;5.93;;
80957;SDS011;70419;42.700;23.316;2023-08-30T04:23:33;12.73;;;5.80;;
80957;SDS011;70419;42.700;23.316;2023-08-30T04:25:59;14.85;;;7.28;;
80957;SDS011;70419;42.700;23.316;2023-08-30T04:28:25;17.40;;;7.10;;
80957;SDS011;70419;42.700;23.316;2023-08-30T04:30:55;17.35;;;6.75;;
80957;SDS011;70419;42.700;23.316;2023-08-30T04:33:21;13.93;;;7.22;;
80957;SDS011;70419;42.700;23.316;2023-08-30T04:35:54;15.52;;;7.97;;
80957;SDS011;70419;42.700;23.316;2023-08-30T04:38:20;12.25;;;7.80;;
80957;SDS011;70419;42.700;23.316;2023-08-30T04:40:46;16.05;;;8.02;;
80957;SDS011;70419;42.700;23.316;2023-08-30T04:43:13;14.13;;;7.57;;
80957;SDS011;70419;42.700;23.316;2023-08-30T04:45:39;15.75;;;8.45;;
80957;SDS011;70419;42.700;23.316;2023-08-30T04:48:05;17.02;;;6.53;;
80957;SDS011;70419;42.700;23.316;2023-08-30T04:50:31;9.95;;;5.45;;
80957;SDS011;70419;42.700;23.316;2023-08-30T04:52:57;13.75;;;5.65;;
80957;SDS011;70419;42.700;23.316;2023-08-30T04:55:24;10.63;;;4.75;;
80957;SDS011;70419;42.700;23.316;2023-08-30T04:57:49;9.63;;;4.88;;
80957;SDS011;70419;42.700;23.316;2023-08-30T05:00:15;13.32;;;6.10;;
80957;SDS011;70419;42.700;23.316;2023-08-30T05:02:42;15.20;;;7.50;;
80957;SDS011;70419;42.700;23.316;2023-08-30T05:05:09;14.95;;;6.00;;
80957;SDS011;70419;42.700;23.316;2023-08-30T05:07:34;12.70;;;4.68;;
80957;SDS011;70419;42.700;23.316;2023-08-30T05:10:00;8.25;;;3.15;;
80957;SDS011;70419;42.700;23.316;2023-08-30T05:12:27;11.38;;;3.40;;
80957;SDS011;70419;42.700;23.316;2023-08-30T05:14:52;14.32;;;3.85;;
80957;SDS011;70419;42.700;23.316;2023-08-30T05:17:18;10.43;;;3.67;;
80957;SDS011;70419;42.700;23.316;2023-08-30T05:19:45;10.80;;;3.70;;
80957;SDS011;70419;42.700;23.316;2023-08-30T05:22:14;14.25;;;4.25;;
80957;SDS011;70419;42.700;23.316;2023-08-30T05:24:40;8.18;;;3.58;;
80957;SDS011;70419;42.700;23.316;2023-08-30T05:27:05;10.48;;;3.22;;
80957;SDS011;70419;42.700;23.316;2023-08-30T05:29:32;11.82;;;4.00;;
80957;SDS011;70419;42.700;23.316;2023-08-30T05:31:57;14.02;;;4.50;;
80957;SDS011;70419;42.700;23.316;2023-08-30T05:34:23;11.30;;;3.90;;
80957;SDS011;70419;42.700;23.316;2023-08-30T05:36:50;12.40;;;4.07;;
80957;SDS011;70419;42.700;23.316;2023-08-30T05:39:16;11.10;;;4.15;;
80957;SDS011;70419;42.700;23.316;2023-08-30T05:41:42;17.50;;;4.15;;
80957;SDS011;70419;42.700;23.316;2023-08-30T05:44:08;8.63;;;3.53;;
80957;SDS011;70419;42.700;23.316;2023-08-30T05:46:34;9.60;;;4.45;;
80957;SDS011;70419;42.700;23.316;2023-08-30T05:49:00;12.55;;;3.67;;
80957;SDS011;70419;42.700;23.316;2023-08-30T05:51:28;9.65;;;3.58;;
80957;SDS011;70419;42.700;23.316;2023-08-30T05:53:54;11.43;;;3.42;;
80957;SDS011;70419;42.700;23.316;2023-08-30T05:56:19;12.65;;;3.42;;
80957;SDS011;70419;42.700;23.316;2023-08-30T05:58:45;10.70;;;3.50;;
80957;SDS011;70419;42.700;23.316;2023-08-30T06:01:11;7.03;;;3.45;;
80957;SDS011;70419;42.700;23.316;2023-08-30T06:03:37;8.57;;;3.42;;
80957;SDS011;70419;42.700;23.316;2023-08-30T06:06:03;11.05;;;3.47;;
80957;SDS011;70419;42.700;23.316;2023-08-30T06:08:29;10.70;;;3.53;;
80957;SDS011;70419;42.700;23.316;2023-08-30T06:10:55;9.73;;;3.67;;
80957;SDS011;70419;42.700;23.316;2023-08-30T06:13:21;8.20;;;3.30;;
80957;SDS011;70419;42.700;23.316;2023-08-30T06:15:50;12.43;;;3.92;;
80957;SDS011;70419;42.700;23.316;2023-08-30T06:18:16;8.80;;;3.17;;
80957;SDS011;70419;42.700;23.316;2023-08-30T06:20:43;8.50;;;4.10;;
80957;SDS011;70419;42.700;23.316;2023-08-30T06:23:08;12.98;;;3.78;;
80957;SDS011;70419;42.700;23.316;2023-08-30T06:25:35;7.65;;;2.88;;
80957;SDS011;70419;42.700;23.316;2023-08-30T06:28:03;7.82;;;3.40;;
80957;SDS011;70419;42.700;23.316;2023-08-30T06:30:29;7.43;;;3.47;;
80957;SDS011;70419;42.700;23.316;2023-08-30T06:32:55;7.45;;;3.55;;
80957;SDS011;70419;42.700;23.316;2023-08-30T06:35:22;10.77;;;3.95;;
80957;SDS011;70419;42.700;23.316;2023-08-30T06:37:48;10.70;;;4.07;;
80957;SDS011;70419;42.700;23.316;2023-08-30T06:40:14;10.35;;;4.43;;
80957;SDS011;70419;42.700;23.316;2023-08-30T06:42:40;17.38;;;4.68;;
80957;SDS011;70419;42.700;23.316;2023-08-30T06:45:06;17.70;;;4.07;;
80957;SDS011;70419;42.700;23.316;2023-08-30T06:47:32;8.00;;;4.00;;
80957;SDS011;70419;42.700;23.316;2023-08-30T06:49:57;6.80;;;3.15;;
80957;SDS011;70419;42.700;23.316;2023-08-30T06:52:24;11.30;;;3.40;;
80957;SDS011;70419;42.700;23.316;2023-08-30T06:54:51;8.95;;;3.60;;
80957;SDS011;70419;42.700;23.316;2023-08-30T06:57:17;7.45;;;2.88;;
80957;SDS011;70419;42.700;23.316;2023-08-30T06:59:44;8.27;;;3.30;;
80957;SDS011;70419;42.700;23.316;2023-08-30T07:02:11;7.15;;;3.30;;
80957;SDS011;70419;42.700;23.316;2023-08-30T07:04:36;10.75;;;4.47;;
80957;SDS011;70419;42.700;23.316;2023-08-30T07:07:02;6.47;;;3.60;;
80957;SDS011;70419;42.700;23.316;2023-08-30T07:09:28;10.35;;;4.18;;
80957;SDS011;70419;42.700;23.316;2023-08-30T07:14:23;8.80;;;3.95;;
80957;SDS011;70419;42.700;23.316;2023-08-30T07:16:48;8.88;;;4.03;;
80957;SDS011;70419;42.700;23.316;2023-08-30T07:19:18;9.95;;;4.95;;
80957;SDS011;70419;42.700;23.316;2023-08-30T07:21:44;9.82;;;4.70;;
80957;SDS011;70419;42.700;23.316;2023-08-30T07:24:10;8.15;;;4.38;;
80957;SDS011;70419;42.700;23.316;2023-08-30T07:26:36;7.97;;;3.67;;
80957;SDS011;70419;42.700;23.316;2023-08-30T07:29:02;7.80;;;3.35;;
80957;SDS011;70419;42.700;23.316;2023-08-30T07:31:31;7.15;;;3.50;;
80957;SDS011;70419;42.700;23.316;2023-08-30T07:33:58;8.25;;;3.70;;
80957;SDS011;70419;42.700;23.316;2023-08-30T07:36:25;9.43;;;3.88;;
80957;SDS011;70419;42.700;23.316;2023-08-30T07:38:53;8.55;;;4.03;;
80957;SDS011;70419;42.700;23.316;2023-08-30T07:41:21;11.30;;;4.13;;
80957;SDS011;70419;42.700;23.316;2023-08-30T07:43:49;7.35;;;4.13;;
80957;SDS011;70419;42.700;23.316;2023-08-30T07:46:16;6.43;;;4.47;;
80957;SDS011;70419;42.700;23.316;2023-08-30T07:48:42;12.65;;;4.43;;
80957;SDS011;70419;42.700;23.316;2023-08-30T07:51:07;7.75;;;3.97;;
80957;SDS011;70419;42.700;23.316;2023-08-30T07:53:33;8.25;;;4.65;;
80957;SDS011;70419;42.700;23.316;2023-08-30T07:56:00;10.30;;;3.92;;
80957;SDS011;70419;42.700;23.316;2023-08-30T07:58:26;6.10;;;4.13;;
80957;SDS011;70419;42.700;23.316;2023-08-30T08:00:52;9.55;;;3.70;;
80957;SDS011;70419;42.700;23.316;2023-08-30T08:03:21;8.32;;;3.95;;
80957;SDS011;70419;42.700;23.316;2023-08-30T08:05:47;7.65;;;3.78;;
80957;SDS011;70419;42.700;23.316;2023-08-30T08:08:13;8.10;;;4.13;;
80957;SDS011;70419;42.700;23.316;2023-08-30T08:10:42;7.53;;;4.22;;
80957;SDS011;70419;42.700;23.316;2023-08-30T08:13:08;7.65;;;3.83;;
80957;SDS011;70419;42.700;23.316;2023-08-30T08:15:34;5.90;;;3.25;;
80957;SDS011;70419;42.700;23.316;2023-08-30T08:18:00;10.60;;;4.18;;
80957;SDS011;70419;42.700;23.316;2023-08-30T08:20:28;10.03;;;4.17;;
80957;SDS011;70419;42.700;23.316;2023-08-30T08:22:54;7.32;;;3.10;;
80957;SDS011;70419;42.700;23.316;2023-08-30T08:25:20;9.93;;;3.58;;
80957;SDS011;70419;42.700;23.316;2023-08-30T08:27:48;7.35;;;3.63;;
80957;SDS011;70419;42.700;23.316;2023-08-30T08:30:13;8.13;;;3.70;;
80957;SDS011;70419;42.700;23.316;2023-08-30T08:32:39;7.88;;;3.90;;
80957;SDS011;70419;42.700;23.316;2023-08-30T08:35:05;10.57;;;3.50;;
80957;SDS011;70419;42.700;23.316;2023-08-30T08:37:31;7.28;;;3.42;;
80957;SDS011;70419;42.700;23.316;2023-08-30T08:39:57;10.48;;;3.67;;
80957;SDS011;70419;42.700;23.316;2023-08-30T08:42:23;8.07;;;3.70;;
80957;SDS011;70419;42.700;23.316;2023-08-30T08:44:52;6.32;;;2.72;;
80957;SDS011;70419;42.700;23.316;2023-08-30T08:47:20;6.55;;;3.53;;
80957;SDS011;70419;42.700;23.316;2023-08-30T08:49:50;10.27;;;4.05;;
80957;SDS011;70419;42.700;23.316;2023-08-30T08:52:16;12.93;;;3.80;;
80957;SDS011;70419;42.700;23.316;2023-08-30T08:54:42;6.50;;;3.30;;
80957;SDS011;70419;42.700;23.316;2023-08-30T08:57:09;8.57;;;3.38;;
80957;SDS011;70419;42.700;23.316;2023-08-30T08:59:34;9.05;;;3.40;;
80957;SDS011;70419;42.700;23.316;2023-08-30T09:02:01;10.00;;;3.90;;
80957;SDS011;70419;42.700;23.316;2023-08-30T09:04:29;8.80;;;3.95;;
80957;SDS011;70419;42.700;23.316;2023-08-30T09:06:56;6.22;;;3.45;;
80957;SDS011;70419;42.700;23.316;2023-08-30T09:09:23;9.40;;;4.22;;
80957;SDS011;70419;42.700;23.316;2023-08-30T09:11:51;10.40;;;4.47;;
80957;SDS011;70419;42.700;23.316;2023-08-30T09:14:17;9.07;;;3.92;;
80957;SDS011;70419;42.700;23.316;2023-08-30T09:16:54;7.60;;;3.58;;
80957;SDS011;70419;42.700;23.316;2023-08-30T09:19:20;9.48;;;4.70;;
80957;SDS011;70419;42.700;23.316;2023-08-30T09:21:58;7.85;;;4.65;;
80957;SDS011;70419;42.700;23.316;2023-08-30T09:24:25;7.15;;;4.45;;
80957;SDS011;70419;42.700;23.316;2023-08-30T09:27:02;10.93;;;4.97;;
80957;SDS011;70419;42.700;23.316;2023-08-30T09:29:28;9.88;;;4.75;;
80957;SDS011;70419;42.700;23.316;2023-08-30T09:31:55;7.77;;;5.50;;
80957;SDS011;70419;42.700;23.316;2023-08-30T09:34:24;13.23;;;5.55;;
80957;SDS011;70419;42.700;23.316;2023-08-30T09:36:53;9.60;;;5.70;;
80957;SDS011;70419;42.700;23.316;2023-08-30T09:39:20;6.95;;;5.00;;
80957;SDS011;70419;42.700;23.316;2023-08-30T09:41:49;6.68;;;5.70;;
80957;SDS011;70419;42.700;23.316;2023-08-30T09:44:16;9.48;;;5.95;;
80957;SDS011;70419;42.700;23.316;2023-08-30T09:46:46;9.75;;;5.75;;
80957;SDS011;70419;42.700;23.316;2023-08-30T09:49:12;12.07;;;5.00;;
80957;SDS011;70419;42.700;23.316;2023-08-30T09:51:39;8.07;;;5.63;;
80957;SDS011;70419;42.700;23.316;2023-08-30T09:54:08;11.00;;;5.25;;
80957;SDS011;70419;42.700;23.316;2023-08-30T09:56:50;5.45;;;4.93;;
80957;SDS011;70419;42.700;23.316;2023-08-30T09:59:20;9.75;;;5.35;;
80957;SDS011;70419;42.700;23.316;2023-08-30T10:01:48;9.00;;;5.60;;
80957;SDS011;70419;42.700;23.316;2023-08-30T10:04:15;7.85;;;5.38;;
80957;SDS011;70419;42.700;23.316;2023-08-30T10:06:43;7.45;;;4.75;;
80957;SDS011;70419;42.700;23.316;2023-08-30T10:09:10;10.18;;;4.63;;
80957;SDS011;70419;42.700;23.316;2023-08-30T10:11:36;7.68;;;4.63;;
80957;SDS011;70419;42.700;23.316;2023-08-30T10:16:30;9.90;;;4.68;;
80957;SDS011;70419;42.700;23.316;2023-08-30T10:19:11;11.52;;;4.25;;
80957;SDS011;70419;42.700;23.316;2023-08-30T10:21:39;7.18;;;4.63;;
80957;SDS011;70419;42.700;23.316;2023-08-30T10:24:08;10.00;;;5.05;;
80957;SDS011;70419;42.700;23.316;2023-08-30T10:26:36;9.77;;;4.60;;
80957;SDS011;70419;42.700;23.316;2023-08-30T10:29:04;10.18;;;5.40;;
80957;SDS011;70419;42.700;23.316;2023-08-30T10:31:32;11.77;;;5.70;;
80957;SDS011;70419;42.700;23.316;2023-08-30T10:33:59;10.23;;;5.47;;
80957;SDS011;70419;42.700;23.316;2023-08-30T10:36:27;10.13;;;4.45;;
80957;SDS011;70419;42.700;23.316;2023-08-30T10:38:53;11.85;;;4.80;;
80957;SDS011;70419;42.700;23.316;2023-08-30T10:41:24;8.83;;;4.97;;
80957;SDS011;70419;42.700;23.316;2023-08-30T10:43:52;12.68;;;4.60;;
80957;SDS011;70419;42.700;23.316;2023-08-30T10:46:33;13.35;;;4.47;;
80957;SDS011;70419;42.700;23.316;2023-08-30T10:49:14;12.85;;;5.15;;
80957;SDS011;70419;42.700;23.316;2023-08-30T10:51:40;9.23;;;5.00;;
80957;SDS011;70419;42.700;23.316;2023-08-30T10:54:15;7.25;;;4.93;;
80957;SDS011;70419;42.700;23.316;2023-08-30T10:56:49;9.55;;;4.90;;
80957;SDS011;70419;42.700;23.316;2023-08-30T10:59:21;10.05;;;4.57;;
80957;SDS011;70419;42.700;23.316;2023-08-30T11:01:49;7.05;;;4.60;;
80957;SDS011;70419;42.700;23.316;2023-08-30T11:04:17;10.50;;;5.18;;
80957;SDS011;70419;42.700;23.316;2023-08-30T11:06:44;9.85;;;5.18;;
80957;SDS011;70419;42.700;23.316;2023-08-30T11:09:15;13.90;;;5.20;;
80957;SDS011;70419;42.700;23.316;2023-08-30T11:11:45;10.13;;;5.40;;
80957;SDS011;70419;42.700;23.316;2023-08-30T11:14:12;10.20;;;4.78;;
80957;SDS011;70419;42.700;23.316;2023-08-30T11:16:38;8.98;;;4.90;;
80957;SDS011;70419;42.700;23.316;2023-08-30T11:19:05;8.50;;;5.20;;
80957;SDS011;70419;42.700;23.316;2023-08-30T11:21:32;8.98;;;5.32;;
80957;SDS011;70419;42.700;23.316;2023-08-30T11:23:59;9.48;;;5.40;;
80957;SDS011;70419;42.700;23.316;2023-08-30T11:26:25;6.80;;;4.90;;
80957;SDS011;70419;42.700;23.316;2023-08-30T11:28:51;8.32;;;4.47;;
80957;SDS011;70419;42.700;23.316;2023-08-30T11:31:21;7.65;;;4.78;;
80957;SDS011;70419;42.700;23.316;2023-08-30T11:33:56;10.20;;;5.68;;
80957;SDS011;70419;42.700;23.316;2023-08-30T11:36:27;8.27;;;4.57;;
80957;SDS011;70419;42.700;23.316;2023-08-30T11:38:54;6.75;;;4.93;;
80957;SDS011;70419;42.700;23.316;2023-08-30T11:41:21;12.93;;;5.10;;
80957;SDS011;70419;42.700;23.316;2023-08-30T11:43:47;6.13;;;4.10;;
80957;SDS011;70419;42.700;23.316;2023-08-30T11:46:13;7.63;;;4.47;;
80957;SDS011;70419;42.700;23.316;2023-08-30T11:48:42;9.80;;;4.78;;
80957;SDS011;70419;42.700;23.316;2023-08-30T11:51:08;9.20;;;4.82;;
80957;SDS011;70419;42.700;23.316;2023-08-30T11:53:36;8.75;;;4.57;;
80957;SDS011;70419;42.700;23.316;2023-08-30T11:56:03;16.88;;;6.05;;
80957;SDS011;70419;42.700;23.316;2023-08-30T11:58:33;9.23;;;4.05;;
80957;SDS011;70419;42.700;23.316;2023-08-30T12:01:00;8.02;;;4.15;;
80957;SDS011;70419;42.700;23.316;2023-08-30T12:03:27;7.55;;;4.75;;
80957;SDS011;70419;42.700;23.316;2023-08-30T12:05:55;7.28;;;4.45;;
80957;SDS011;70419;42.700;23.316;2023-08-30T12:08:25;10.68;;;4.55;;
80957;SDS011;70419;42.700;23.316;2023-08-30T12:10:52;8.32;;;4.85;;
80957;SDS011;70419;42.700;23.316;2023-08-30T12:13:19;6.22;;;4.68;;
80957;SDS011;70419;42.700;23.316;2023-08-30T12:15:54;7.30;;;4.72;;
80957;SDS011;70419;42.700;23.316;2023-08-30T12:18:24;8.57;;;4.97;;
80957;SDS011;70419;42.700;23.316;2023-08-30T12:21:00;9.73;;;4.65;;
80957;SDS011;70419;42.700;23.316;2023-08-30T12:25:58;9.65;;;5.00;;
80957;SDS011;70419;42.700;23.316;2023-08-30T12:28:36;8.77;;;5.05;;
80957;SDS011;70419;42.700;23.316;2023-08-30T12:31:09;7.75;;;4.95;;
80957;SDS011;70419;42.700;23.316;2023-08-30T12:33:35;8.13;;;4.90;;
80957;SDS011;70419;42.700;23.316;2023-08-30T12:36:07;8.10;;;4.70;;
80957;SDS011;70419;42.700;23.316;2023-08-30T12:38:34;9.00;;;5.63;;
80957;SDS011;70419;42.700;23.316;2023-08-30T12:41:01;7.53;;;5.07;;
80957;SDS011;70419;42.700;23.316;2023-08-30T12:43:28;10.15;;;5.13;;
80957;SDS011;70419;42.700;23.316;2023-08-30T12:45:54;7.57;;;4.53;;
80957;SDS011;70419;42.700;23.316;2023-08-30T12:48:20;8.25;;;4.93;;
80957;SDS011;70419;42.700;23.316;2023-08-30T12:50:47;6.40;;;4.60;;
80957;SDS011;70419;42.700;23.316;2023-08-30T12:53:13;8.60;;;5.25;;
80957;SDS011;70419;42.700;23.316;2023-08-30T12:55:42;8.77;;;4.97;;
80957;SDS011;70419;42.700;23.316;2023-08-30T12:58:08;7.45;;;4.82;;
80957;SDS011;70419;42.700;23.316;2023-08-30T13:00:35;7.82;;;5.07;;
80957;SDS011;70419;42.700;23.316;2023-08-30T13:03:07;6.43;;;4.38;;
80957;SDS011;70419;42.700;23.316;2023-08-30T13:05:33;12.75;;;5.03;;
80957;SDS011;70419;42.700;23.316;2023-08-30T13:07:59;6.63;;;4.45;;
80957;SDS011;70419;42.700;23.316;2023-08-30T13:10:28;6.90;;;4.68;;
80957;SDS011;70419;42.700;23.316;2023-08-30T13:12:58;11.33;;;4.70;;
80957;SDS011;70419;42.700;23.316;2023-08-30T13:15:24;7.55;;;4.30;;
80957;SDS011;70419;42.700;23.316;2023-08-30T13:17:50;9.45;;;5.00;;
80957;SDS011;70419;42.700;23.316;2023-08-30T13:20:18;7.07;;;4.25;;
80957;SDS011;70419;42.700;23.316;2023-08-30T13:22:45;6.37;;;3.97;;
80957;SDS011;70419;42.700;23.316;2023-08-30T13:25:11;8.52;;;5.05;;
80957;SDS011;70419;42.700;23.316;2023-08-30T13:27:36;9.02;;;4.75;;
80957;SDS011;70419;42.700;23.316;2023-08-30T13:30:02;8.15;;;4.75;;
80957;SDS011;70419;42.700;23.316;2023-08-30T13:32:31;8.00;;;3.67;;
80957;SDS011;70419;42.700;23.316;2023-08-30T13:34:58;8.75;;;4.28;;
80957;SDS011;70419;42.700;23.316;2023-08-30T13:37:24;7.68;;;4.35;;
80957;SDS011;70419;42.700;23.316;2023-08-30T13:39:50;7.25;;;4.53;;
80957;SDS011;70419;42.700;23.316;2023-08-30T13:42:18;7.45;;;3.72;;
80957;SDS011;70419;42.700;23.316;2023-08-30T13:44:44;9.35;;;4.65;;
80957;SDS011;70419;42.700;23.316;2023-08-30T13:47:10;7.85;;;4.07;;
80957;SDS011;70419;42.700;23.316;2023-08-30T13:49:36;7.13;;;3.90;;
80957;SDS011;70419;42.700;23.316;2023-08-30T13:52:02;6.70;;;3.50;;
80957;SDS011;70419;42.700;23.316;2023-08-30T13:54:31;10.95;;;4.30;;
80957;SDS011;70419;42.700;23.316;2023-08-30T13:56:57;8.75;;;4.38;;
80957;SDS011;70419;42.700;23.316;2023-08-30T13:59:23;6.00;;;3.72;;
80957;SDS011;70419;42.700;23.316;2023-08-30T14:01:49;7.07;;;3.88;;
80957;SDS011;70419;42.700;23.316;2023-08-30T14:04:15;6.65;;;4.20;;
80957;SDS011;70419;42.700;23.316;2023-08-30T14:06:41;7.30;;;4.03;;
80957;SDS011;70419;42.700;23.316;2023-08-30T14:09:06;6.68;;;4.07;;
80957;SDS011;70419;42.700;23.316;2023-08-30T14:11:33;7.43;;;4.40;;
80957;SDS011;70419;42.700;23.316;2023-08-30T14:14:01;8.20;;;4.03;;
80957;SDS011;70419;42.700;23.316;2023-08-30T14:16:27;8.65;;;3.70;;
80957;SDS011;70419;42.700;23.316;2023-08-30T14:18:53;7.90;;;3.67;;
80957;SDS011;70419;42.700;23.316;2023-08-30T14:21:19;10.07;;;3.88;;
80957;SDS011;70419;42.700;23.316;2023-08-30T14:23:45;8.48;;;4.00;;
80957;SDS011;70419;42.700;23.316;2023-08-30T14:26:12;7.55;;;3.97;;
80957;SDS011;70419;42.700;23.316;2023-08-30T14:28:38;8.60;;;3.88;;
80957;SDS011;70419;42.700;23.316;2023-08-30T14:31:10;8.15;;;3.47;;
80957;SDS011;70419;42.700;23.316;2023-08-30T14:33:42;6.25;;;2.90;;
80957;SDS011;70419;42.700;23.316;2023-08-30T14:36:12;7.18;;;3.22;;
80957;SDS011;70419;42.700;23.316;2023-08-30T14:38:38;7.43;;;3.45;;
80957;SDS011;70419;42.700;23.316;2023-08-30T14:41:05;7.40;;;3.35;;